sensor_id;sensor_type;location;lat;lon;timestamp;P1;durP1;ratioP1;P2;durP2;ratioP2
58222;SDS011;44020;50.890;15.796;2023-06-22T00:00:12;10.60;;;9.40;;
58222;SDS011;44020;50.890;15.796;2023-06-22T00:03:00;12.20;;;9.50;;
58222;SDS011;44020;50.890;15.796;2023-06-22T00:05:28;13.10;;;9.80;;
58222;SDS011;44020;50.890;15.796;2023-06-22T00:07:56;15.10;;;10.10;;
58222;SDS011;44020;50.890;15.796;2023-06-22T00:10:24;11.70;;;9.40;;
58222;SDS011;44020;50.890;15.796;2023-06-22T00:12:51;10.40;;;9.30;;
58222;SDS011;44020;50.890;15.796;2023-06-22T00:15:19;12.60;;;10.30;;
58222;SDS011;44020;50.890;15.796;2023-06-22T00:17:47;12.80;;;10.10;;
58222;SDS011;44020;50.890;15.796;2023-06-22T00:20:14;15.30;;;10.20;;
58222;SDS011;44020;50.890;15.796;2023-06-22T00:22:43;13.00;;;10.20;;
58222;SDS011;44020;50.890;15.796;2023-06-22T00:25:11;15.90;;;11.00;;
58222;SDS011;44020;50.890;15.796;2023-06-22T00:27:39;14.10;;;10.40;;
58222;SDS011;44020;50.890;15.796;2023-06-22T00:30:07;12.00;;;10.20;;
58222;SDS011;44020;50.890;15.796;2023-06-22T00:32:35;11.80;;;10.50;;
58222;SDS011;44020;50.890;15.796;2023-06-22T00:35:03;11.60;;;10.40;;
58222;SDS011;44020;50.890;15.796;2023-06-22T00:37:31;12.90;;;10.00;;
58222;SDS011;44020;50.890;15.796;2023-06-22T00:39:59;10.90;;;9.70;;
58222;SDS011;44020;50.890;15.796;2023-06-22T00:42:26;11.40;;;9.40;;
58222;SDS011;44020;50.890;15.796;2023-06-22T00:44:54;10.50;;;9.10;;
58222;SDS011;44020;50.890;15.796;2023-06-22T00:47:21;11.30;;;9.70;;
58222;SDS011;44020;50.890;15.796;2023-06-22T00:49:49;13.40;;;9.80;;
58222;SDS011;44020;50.890;15.796;2023-06-22T00:52:21;10.70;;;9.20;;
58222;SDS011;44020;50.890;15.796;2023-06-22T00:54:54;11.00;;;8.80;;
58222;SDS011;44020;50.890;15.796;2023-06-22T00:57:23;9.80;;;8.40;;
58222;SDS011;44020;50.890;15.796;2023-06-22T00:59:55;11.80;;;9.20;;
58222;SDS011;44020;50.890;15.796;2023-06-22T01:02:22;12.50;;;9.20;;
58222;SDS011;44020;50.890;15.796;2023-06-22T01:04:50;12.10;;;9.70;;
58222;SDS011;44020;50.890;15.796;2023-06-22T01:10:18;12.20;;;9.80;;
58222;SDS011;44020;50.890;15.796;2023-06-22T01:13:01;11.90;;;9.90;;
58222;SDS011;44020;50.890;15.796;2023-06-22T01:15:33;12.00;;;9.50;;
58222;SDS011;44020;50.890;15.796;2023-06-22T01:18:06;11.10;;;9.70;;
58222;SDS011;44020;50.890;15.796;2023-06-22T01:20:37;10.80;;;9.30;;
58222;SDS011;44020;50.890;15.796;2023-06-22T01:23:07;11.50;;;9.30;;
58222;SDS011;44020;50.890;15.796;2023-06-22T01:31:16;11.10;;;10.00;;
58222;SDS011;44020;50.890;15.796;2023-06-22T01:33:48;10.70;;;8.60;;
58222;SDS011;44020;50.890;15.796;2023-06-22T01:36:18;10.50;;;9.00;;
58222;SDS011;44020;50.890;15.796;2023-06-22T01:38:48;13.80;;;9.50;;
58222;SDS011;44020;50.890;15.796;2023-06-22T01:41:16;11.30;;;10.00;;
58222;SDS011;44020;50.890;15.796;2023-06-22T01:43:44;11.60;;;10.40;;
58222;SDS011;44020;50.890;15.796;2023-06-22T01:46:12;12.50;;;10.20;;
58222;SDS011;44020;50.890;15.796;2023-06-22T01:48:41;18.30;;;9.70;;
58222;SDS011;44020;50.890;15.796;2023-06-22T01:51:09;13.80;;;10.00;;
58222;SDS011;44020;50.890;15.796;2023-06-22T01:53:36;11.60;;;10.40;;
58222;SDS011;44020;50.890;15.796;2023-06-22T01:56:04;14.60;;;11.10;;
58222;SDS011;44020;50.890;15.796;2023-06-22T01:58:32;13.90;;;9.90;;
58222;SDS011;44020;50.890;15.796;2023-06-22T02:01:09;10.40;;;9.20;;
58222;SDS011;44020;50.890;15.796;2023-06-22T02:03:44;9.60;;;8.60;;
58222;SDS011;44020;50.890;15.796;2023-06-22T02:06:31;12.70;;;9.40;;
58222;SDS011;44020;50.890;15.796;2023-06-22T02:09:08;10.50;;;9.40;;
58222;SDS011;44020;50.890;15.796;2023-06-22T02:11:40;13.70;;;9.20;;
58222;SDS011;44020;50.890;15.796;2023-06-22T02:14:09;10.40;;;8.30;;
58222;SDS011;44020;50.890;15.796;2023-06-22T02:16:38;9.30;;;8.30;;
58222;SDS011;44020;50.890;15.796;2023-06-22T02:19:07;11.90;;;9.10;;
58222;SDS011;44020;50.890;15.796;2023-06-22T02:21:35;10.60;;;9.40;;
58222;SDS011;44020;50.890;15.796;2023-06-22T02:24:03;11.80;;;9.20;;
58222;SDS011;44020;50.890;15.796;2023-06-22T02:26:31;10.80;;;9.60;;
58222;SDS011;44020;50.890;15.796;2023-06-22T02:28:59;10.90;;;8.90;;
58222;SDS011;44020;50.890;15.796;2023-06-22T02:31:27;11.70;;;8.80;;
58222;SDS011;44020;50.890;15.796;2023-06-22T02:33:58;13.30;;;9.90;;
58222;SDS011;44020;50.890;15.796;2023-06-22T02:36:26;11.20;;;9.40;;
58222;SDS011;44020;50.890;15.796;2023-06-22T02:38:58;12.10;;;8.50;;
58222;SDS011;44020;50.890;15.796;2023-06-22T02:41:28;10.50;;;8.00;;
58222;SDS011;44020;50.890;15.796;2023-06-22T02:43:55;9.90;;;7.90;;
58222;SDS011;44020;50.890;15.796;2023-06-22T02:46:23;10.80;;;8.00;;
58222;SDS011;44020;50.890;15.796;2023-06-22T02:48:50;8.60;;;7.70;;
58222;SDS011;44020;50.890;15.796;2023-06-22T02:51:18;8.80;;;7.90;;
58222;SDS011;44020;50.890;15.796;2023-06-22T02:53:45;10.20;;;9.00;;
58222;SDS011;44020;50.890;15.796;2023-06-22T02:56:14;10.80;;;9.00;;
58222;SDS011;44020;50.890;15.796;2023-06-22T02:58:42;8.40;;;7.60;;
58222;SDS011;44020;50.890;15.796;2023-06-22T03:01:10;9.00;;;7.10;;
58222;SDS011;44020;50.890;15.796;2023-06-22T03:03:39;8.90;;;8.00;;
58222;SDS011;44020;50.890;15.796;2023-06-22T03:06:07;8.40;;;6.80;;
58222;SDS011;44020;50.890;15.796;2023-06-22T03:08:40;8.30;;;7.30;;
58222;SDS011;44020;50.890;15.796;2023-06-22T03:11:08;9.70;;;7.20;;
58222;SDS011;44020;50.890;15.796;2023-06-22T03:13:36;8.60;;;7.40;;
58222;SDS011;44020;50.890;15.796;2023-06-22T03:16:04;7.40;;;6.70;;
58222;SDS011;44020;50.890;15.796;2023-06-22T03:18:31;10.40;;;8.00;;
58222;SDS011;44020;50.890;15.796;2023-06-22T03:20:59;9.30;;;8.20;;
58222;SDS011;44020;50.890;15.796;2023-06-22T03:23:27;9.50;;;8.50;;
58222;SDS011;44020;50.890;15.796;2023-06-22T03:25:55;12.30;;;9.80;;
58222;SDS011;44020;50.890;15.796;2023-06-22T03:28:22;11.50;;;9.00;;
58222;SDS011;44020;50.890;15.796;2023-06-22T03:30:50;8.00;;;7.10;;
58222;SDS011;44020;50.890;15.796;2023-06-22T03:33:18;10.30;;;7.60;;
58222;SDS011;44020;50.890;15.796;2023-06-22T03:35:46;8.20;;;7.40;;
58222;SDS011;44020;50.890;15.796;2023-06-22T03:38:13;11.50;;;8.00;;
58222;SDS011;44020;50.890;15.796;2023-06-22T03:40:41;9.40;;;8.40;;
58222;SDS011;44020;50.890;15.796;2023-06-22T03:43:08;10.10;;;8.90;;
58222;SDS011;44020;50.890;15.796;2023-06-22T03:45:37;10.30;;;8.10;;
58222;SDS011;44020;50.890;15.796;2023-06-22T03:48:04;11.20;;;8.60;;
58222;SDS011;44020;50.890;15.796;2023-06-22T03:50:32;10.80;;;9.60;;
58222;SDS011;44020;50.890;15.796;2023-06-22T03:52:59;9.40;;;8.40;;
58222;SDS011;44020;50.890;15.796;2023-06-22T03:55:27;9.80;;;8.80;;
58222;SDS011;44020;50.890;15.796;2023-06-22T03:57:55;12.50;;;9.20;;
58222;SDS011;44020;50.890;15.796;2023-06-22T04:00:24;10.70;;;9.00;;
58222;SDS011;44020;50.890;15.796;2023-06-22T04:02:52;10.60;;;9.50;;
58222;SDS011;44020;50.890;15.796;2023-06-22T04:05:20;15.80;;;10.30;;
58222;SDS011;44020;50.890;15.796;2023-06-22T04:07:47;11.30;;;9.90;;
58222;SDS011;44020;50.890;15.796;2023-06-22T04:10:15;14.20;;;10.00;;
58222;SDS011;44020;50.890;15.796;2023-06-22T04:12:43;12.90;;;10.80;;
58222;SDS011;44020;50.890;15.796;2023-06-22T04:15:11;12.90;;;10.60;;
58222;SDS011;44020;50.890;15.796;2023-06-22T04:17:39;13.50;;;10.70;;
58222;SDS011;44020;50.890;15.796;2023-06-22T04:20:07;13.10;;;11.30;;
58222;SDS011;44020;50.890;15.796;2023-06-22T04:22:35;14.70;;;11.30;;
58222;SDS011;44020;50.890;15.796;2023-06-22T04:25:03;14.20;;;11.30;;
58222;SDS011;44020;50.890;15.796;2023-06-22T04:27:34;12.40;;;10.20;;
58222;SDS011;44020;50.890;15.796;2023-06-22T04:30:07;14.60;;;10.50;;
58222;SDS011;44020;50.890;15.796;2023-06-22T04:32:35;16.00;;;11.50;;
58222;SDS011;44020;50.890;15.796;2023-06-22T04:35:06;16.20;;;11.20;;
58222;SDS011;44020;50.890;15.796;2023-06-22T04:37:34;12.80;;;11.20;;
58222;SDS011;44020;50.890;15.796;2023-06-22T04:40:02;13.60;;;10.60;;
58222;SDS011;44020;50.890;15.796;2023-06-22T04:42:33;14.20;;;11.50;;
58222;SDS011;44020;50.890;15.796;2023-06-22T04:45:02;17.60;;;12.00;;
58222;SDS011;44020;50.890;15.796;2023-06-22T04:47:31;12.50;;;11.10;;
58222;SDS011;44020;50.890;15.796;2023-06-22T04:49:59;12.80;;;11.20;;
58222;SDS011;44020;50.890;15.796;2023-06-22T04:52:26;13.40;;;11.20;;
58222;SDS011;44020;50.890;15.796;2023-06-22T04:54:54;12.20;;;10.70;;
58222;SDS011;44020;50.890;15.796;2023-06-22T04:57:24;14.00;;;10.50;;
58222;SDS011;44020;50.890;15.796;2023-06-22T05:00:02;12.40;;;10.50;;
58222;SDS011;44020;50.890;15.796;2023-06-22T05:02:39;14.80;;;11.50;;
58222;SDS011;44020;50.890;15.796;2023-06-22T05:05:07;11.80;;;10.60;;
58222;SDS011;44020;50.890;15.796;2023-06-22T05:07:36;11.70;;;9.70;;
58222;SDS011;44020;50.890;15.796;2023-06-22T05:10:04;12.10;;;10.90;;
58222;SDS011;44020;50.890;15.796;2023-06-22T05:12:32;11.90;;;10.70;;
58222;SDS011;44020;50.890;15.796;2023-06-22T05:15:00;12.80;;;10.60;;
58222;SDS011;44020;50.890;15.796;2023-06-22T05:17:28;12.00;;;10.70;;
58222;SDS011;44020;50.890;15.796;2023-06-22T05:19:55;12.60;;;10.30;;
58222;SDS011;44020;50.890;15.796;2023-06-22T05:22:23;11.50;;;10.30;;
58222;SDS011;44020;50.890;15.796;2023-06-22T05:24:50;13.00;;;11.10;;
58222;SDS011;44020;50.890;15.796;2023-06-22T05:27:18;11.90;;;10.20;;
58222;SDS011;44020;50.890;15.796;2023-06-22T05:29:45;12.70;;;10.30;;
58222;SDS011;44020;50.890;15.796;2023-06-22T05:32:13;11.70;;;10.10;;
58222;SDS011;44020;50.890;15.796;2023-06-22T05:34:41;14.00;;;11.10;;
58222;SDS011;44020;50.890;15.796;2023-06-22T05:37:08;11.70;;;10.50;;
58222;SDS011;44020;50.890;15.796;2023-06-22T05:39:36;11.90;;;10.20;;
58222;SDS011;44020;50.890;15.796;2023-06-22T05:42:05;12.80;;;10.80;;
58222;SDS011;44020;50.890;15.796;2023-06-22T05:44:33;12.70;;;10.50;;
58222;SDS011;44020;50.890;15.796;2023-06-22T05:47:01;14.00;;;10.60;;
58222;SDS011;44020;50.890;15.796;2023-06-22T05:49:29;11.90;;;10.70;;
58222;SDS011;44020;50.890;15.796;2023-06-22T05:52:00;15.20;;;11.10;;
58222;SDS011;44020;50.890;15.796;2023-06-22T05:54:28;11.60;;;10.10;;
58222;SDS011;44020;50.890;15.796;2023-06-22T05:56:55;12.50;;;10.90;;
58222;SDS011;44020;50.890;15.796;2023-06-22T05:59:23;12.50;;;11.00;;
58222;SDS011;44020;50.890;15.796;2023-06-22T06:01:50;11.60;;;10.30;;
58222;SDS011;44020;50.890;15.796;2023-06-22T06:04:18;11.60;;;9.70;;
58222;SDS011;44020;50.890;15.796;2023-06-22T06:06:45;11.60;;;9.90;;
58222;SDS011;44020;50.890;15.796;2023-06-22T06:09:14;13.40;;;10.30;;
58222;SDS011;44020;50.890;15.796;2023-06-22T06:11:41;11.00;;;9.90;;
58222;SDS011;44020;50.890;15.796;2023-06-22T06:14:09;13.20;;;10.20;;
58222;SDS011;44020;50.890;15.796;2023-06-22T06:16:37;12.60;;;9.90;;
58222;SDS011;44020;50.890;15.796;2023-06-22T06:19:04;11.30;;;10.00;;
58222;SDS011;44020;50.890;15.796;2023-06-22T06:21:32;15.00;;;9.80;;
58222;SDS011;44020;50.890;15.796;2023-06-22T06:23:59;11.60;;;9.70;;
58222;SDS011;44020;50.890;15.796;2023-06-22T06:26:28;12.60;;;10.40;;
58222;SDS011;44020;50.890;15.796;2023-06-22T06:28:56;12.40;;;9.80;;
58222;SDS011;44020;50.890;15.796;2023-06-22T06:31:24;11.20;;;9.50;;
58222;SDS011;44020;50.890;15.796;2023-06-22T06:33:54;13.30;;;10.30;;
58222;SDS011;44020;50.890;15.796;2023-06-22T06:36:22;10.90;;;9.70;;
58222;SDS011;44020;50.890;15.796;2023-06-22T06:38:50;12.10;;;10.30;;
58222;SDS011;44020;50.890;15.796;2023-06-22T06:41:19;11.00;;;9.90;;
58222;SDS011;44020;50.890;15.796;2023-06-22T06:43:46;12.20;;;9.70;;
58222;SDS011;44020;50.890;15.796;2023-06-22T06:46:13;10.60;;;9.50;;
58222;SDS011;44020;50.890;15.796;2023-06-22T06:48:41;9.80;;;8.80;;
58222;SDS011;44020;50.890;15.796;2023-06-22T06:51:09;12.40;;;9.20;;
58222;SDS011;44020;50.890;15.796;2023-06-22T06:53:37;12.40;;;9.10;;
58222;SDS011;44020;50.890;15.796;2023-06-22T06:56:05;10.60;;;8.90;;
58222;SDS011;44020;50.890;15.796;2023-06-22T06:58:33;12.10;;;8.70;;
58222;SDS011;44020;50.890;15.796;2023-06-22T07:01:00;9.30;;;8.20;;
58222;SDS011;44020;50.890;15.796;2023-06-22T07:03:28;9.40;;;8.40;;
58222;SDS011;44020;50.890;15.796;2023-06-22T07:05:55;10.10;;;8.80;;
58222;SDS011;44020;50.890;15.796;2023-06-22T07:08:23;10.80;;;8.80;;
58222;SDS011;44020;50.890;15.796;2023-06-22T07:10:51;11.50;;;8.70;;
58222;SDS011;44020;50.890;15.796;2023-06-22T07:13:19;10.60;;;8.90;;
58222;SDS011;44020;50.890;15.796;2023-06-22T07:15:46;10.10;;;8.30;;
58222;SDS011;44020;50.890;15.796;2023-06-22T07:18:13;9.30;;;8.40;;
58222;SDS011;44020;50.890;15.796;2023-06-22T07:20:41;10.80;;;8.40;;
58222;SDS011;44020;50.890;15.796;2023-06-22T07:23:08;8.60;;;7.70;;
58222;SDS011;44020;50.890;15.796;2023-06-22T07:25:36;9.30;;;8.10;;
58222;SDS011;44020;50.890;15.796;2023-06-22T07:28:04;11.50;;;7.70;;
58222;SDS011;44020;50.890;15.796;2023-06-22T07:30:32;10.00;;;7.70;;
58222;SDS011;44020;50.890;15.796;2023-06-22T07:33:01;8.00;;;7.10;;
58222;SDS011;44020;50.890;15.796;2023-06-22T07:35:34;10.60;;;8.00;;
58222;SDS011;44020;50.890;15.796;2023-06-22T07:38:02;8.90;;;7.70;;
58222;SDS011;44020;50.890;15.796;2023-06-22T07:40:30;8.60;;;7.70;;
58222;SDS011;44020;50.890;15.796;2023-06-22T07:42:57;10.40;;;8.10;;
58222;SDS011;44020;50.890;15.796;2023-06-22T07:45:25;8.80;;;7.70;;
58222;SDS011;44020;50.890;15.796;2023-06-22T07:47:52;9.30;;;7.60;;
58222;SDS011;44020;50.890;15.796;2023-06-22T07:50:20;8.80;;;7.70;;
58222;SDS011;44020;50.890;15.796;2023-06-22T07:52:47;9.60;;;7.80;;
58222;SDS011;44020;50.890;15.796;2023-06-22T07:55:14;9.60;;;7.60;;
58222;SDS011;44020;50.890;15.796;2023-06-22T07:57:42;13.60;;;7.90;;
58222;SDS011;44020;50.890;15.796;2023-06-22T08:00:10;8.60;;;7.50;;
58222;SDS011;44020;50.890;15.796;2023-06-22T08:02:45;9.10;;;7.50;;
58222;SDS011;44020;50.890;15.796;2023-06-22T08:05:13;9.80;;;8.10;;
58222;SDS011;44020;50.890;15.796;2023-06-22T08:07:41;10.10;;;8.10;;
58222;SDS011;44020;50.890;15.796;2023-06-22T08:10:10;9.60;;;7.90;;
58222;SDS011;44020;50.890;15.796;2023-06-22T08:12:41;9.80;;;7.90;;
58222;SDS011;44020;50.890;15.796;2023-06-22T08:15:09;8.50;;;7.20;;
58222;SDS011;44020;50.890;15.796;2023-06-22T08:17:37;9.60;;;7.80;;
58222;SDS011;44020;50.890;15.796;2023-06-22T08:20:05;10.30;;;7.50;;
58222;SDS011;44020;50.890;15.796;2023-06-22T08:22:42;8.10;;;7.30;;
58222;SDS011;44020;50.890;15.796;2023-06-22T08:25:10;8.50;;;7.60;;
58222;SDS011;44020;50.890;15.796;2023-06-22T08:27:38;7.80;;;7.00;;
58222;SDS011;44020;50.890;15.796;2023-06-22T08:30:06;8.30;;;7.50;;
58222;SDS011;44020;50.890;15.796;2023-06-22T08:32:34;9.60;;;7.70;;
58222;SDS011;44020;50.890;15.796;2023-06-22T08:35:02;8.10;;;6.80;;
58222;SDS011;44020;50.890;15.796;2023-06-22T08:37:30;7.50;;;6.70;;
58222;SDS011;44020;50.890;15.796;2023-06-22T08:39:58;7.80;;;6.40;;
58222;SDS011;44020;50.890;15.796;2023-06-22T08:42:28;8.20;;;7.40;;
58222;SDS011;44020;50.890;15.796;2023-06-22T08:44:55;8.10;;;7.30;;
58222;SDS011;44020;50.890;15.796;2023-06-22T08:47:23;7.10;;;6.30;;
58222;SDS011;44020;50.890;15.796;2023-06-22T08:49:50;8.10;;;6.80;;
58222;SDS011;44020;50.890;15.796;2023-06-22T08:52:18;8.20;;;6.70;;
58222;SDS011;44020;50.890;15.796;2023-06-22T08:54:47;7.90;;;6.90;;
58222;SDS011;44020;50.890;15.796;2023-06-22T08:57:14;5.90;;;5.30;;
58222;SDS011;44020;50.890;15.796;2023-06-22T08:59:42;9.60;;;6.30;;
58222;SDS011;44020;50.890;15.796;2023-06-22T09:02:10;8.10;;;5.70;;
58222;SDS011;44020;50.890;15.796;2023-06-22T09:04:38;8.10;;;6.10;;
58222;SDS011;44020;50.890;15.796;2023-06-22T09:07:05;7.10;;;6.40;;
58222;SDS011;44020;50.890;15.796;2023-06-22T09:09:33;9.50;;;6.60;;
58222;SDS011;44020;50.890;15.796;2023-06-22T09:12:01;7.70;;;6.40;;
58222;SDS011;44020;50.890;15.796;2023-06-22T09:14:28;9.40;;;6.60;;
58222;SDS011;44020;50.890;15.796;2023-06-22T09:16:56;7.10;;;6.00;;
58222;SDS011;44020;50.890;15.796;2023-06-22T09:19:24;7.70;;;6.60;;
58222;SDS011;44020;50.890;15.796;2023-06-22T09:21:57;8.80;;;7.30;;
58222;SDS011;44020;50.890;15.796;2023-06-22T09:24:24;9.80;;;7.00;;
58222;SDS011;44020;50.890;15.796;2023-06-22T09:26:52;7.40;;;6.60;;
58222;SDS011;44020;50.890;15.796;2023-06-22T09:29:19;10.30;;;7.40;;
58222;SDS011;44020;50.890;15.796;2023-06-22T09:31:47;9.30;;;6.50;;
58222;SDS011;44020;50.890;15.796;2023-06-22T09:34:14;8.20;;;7.20;;
58222;SDS011;44020;50.890;15.796;2023-06-22T09:36:47;7.90;;;7.10;;
58222;SDS011;44020;50.890;15.796;2023-06-22T09:39:14;8.20;;;7.30;;
58222;SDS011;44020;50.890;15.796;2023-06-22T09:41:42;8.50;;;7.00;;
58222;SDS011;44020;50.890;15.796;2023-06-22T09:46:35;9.90;;;7.40;;
58222;SDS011;44020;50.890;15.796;2023-06-22T09:52:08;8.50;;;7.50;;
58222;SDS011;44020;50.890;15.796;2023-06-22T09:58:24;8.50;;;6.60;;
58222;SDS011;44020;50.890;15.796;2023-06-22T10:00:53;9.80;;;6.70;;
58222;SDS011;44020;50.890;15.796;2023-06-22T10:04:08;8.50;;;7.60;;
58222;SDS011;44020;50.890;15.796;2023-06-22T10:07:00;10.60;;;7.40;;
58222;SDS011;44020;50.890;15.796;2023-06-22T10:44:20;8.30;;;7.10;;
58222;SDS011;44020;50.890;15.796;2023-06-22T11:03:32;10.10;;;7.30;;
58222;SDS011;44020;50.890;15.796;2023-06-22T11:06:34;9.80;;;7.10;;
58222;SDS011;44020;50.890;15.796;2023-06-22T11:10:00;8.60;;;7.70;;
58222;SDS011;44020;50.890;15.796;2023-06-22T11:12:55;7.70;;;6.70;;
58222;SDS011;44020;50.890;15.796;2023-06-22T11:25:28;2.90;;;2.40;;
58222;SDS011;44020;50.890;15.796;2023-06-22T11:28:22;9.40;;;7.20;;
58222;SDS011;44020;50.890;15.796;2023-06-22T11:30:50;11.10;;;8.30;;
58222;SDS011;44020;50.890;15.796;2023-06-22T11:40:15;9.20;;;8.00;;
58222;SDS011;44020;50.890;15.796;2023-06-22T11:43:04;8.70;;;7.60;;
58222;SDS011;44020;50.890;15.796;2023-06-22T11:46:00;8.20;;;7.30;;
58222;SDS011;44020;50.890;15.796;2023-06-22T11:49:29;9.90;;;7.40;;
58222;SDS011;44020;50.890;15.796;2023-06-22T11:55:30;9.30;;;8.40;;
58222;SDS011;44020;50.890;15.796;2023-06-22T11:58:49;9.10;;;7.70;;
58222;SDS011;44020;50.890;15.796;2023-06-22T12:01:44;9.70;;;8.00;;
58222;SDS011;44020;50.890;15.796;2023-06-22T12:04:42;8.50;;;7.70;;
58222;SDS011;44020;50.890;15.796;2023-06-22T12:07:13;9.40;;;8.00;;
58222;SDS011;44020;50.890;15.796;2023-06-22T12:20:07;7.80;;;7.00;;
58222;SDS011;44020;50.890;15.796;2023-06-22T12:26:35;8.30;;;7.40;;
58222;SDS011;44020;50.890;15.796;2023-06-22T12:29:25;8.20;;;7.40;;
58222;SDS011;44020;50.890;15.796;2023-06-22T12:41:51;7.60;;;6.90;;
58222;SDS011;44020;50.890;15.796;2023-06-22T12:44:58;11.80;;;8.10;;
58222;SDS011;44020;50.890;15.796;2023-06-22T12:51:19;9.30;;;8.00;;
58222;SDS011;44020;50.890;15.796;2023-06-22T13:03:23;9.40;;;8.50;;
58222;SDS011;44020;50.890;15.796;2023-06-22T13:06:20;9.70;;;8.00;;
58222;SDS011;44020;50.890;15.796;2023-06-22T13:09:02;9.50;;;8.40;;
58222;SDS011;44020;50.890;15.796;2023-06-22T13:21:40;12.10;;;8.20;;
58222;SDS011;44020;50.890;15.796;2023-06-22T13:27:49;9.80;;;8.50;;
58222;SDS011;44020;50.890;15.796;2023-06-22T13:31:07;9.30;;;8.00;;
58222;SDS011;44020;50.890;15.796;2023-06-22T13:34:03;10.90;;;9.50;;
58222;SDS011;44020;50.890;15.796;2023-06-22T13:39:40;12.10;;;9.50;;
58222;SDS011;44020;50.890;15.796;2023-06-22T13:45:41;10.60;;;9.00;;
58222;SDS011;44020;50.890;15.796;2023-06-22T13:48:57;10.20;;;9.10;;
58222;SDS011;44020;50.890;15.796;2023-06-22T13:54:53;9.90;;;8.90;;
58222;SDS011;44020;50.890;15.796;2023-06-22T13:57:40;11.20;;;9.40;;
58222;SDS011;44020;50.890;15.796;2023-06-22T14:03:43;10.70;;;9.60;;
58222;SDS011;44020;50.890;15.796;2023-06-22T14:16:43;10.30;;;9.10;;
58222;SDS011;44020;50.890;15.796;2023-06-22T14:22:42;9.80;;;8.80;;
58222;SDS011;44020;50.890;15.796;2023-06-22T14:32:10;10.30;;;9.00;;
58222;SDS011;44020;50.890;15.796;2023-06-22T14:37:59;9.90;;;8.90;;
58222;SDS011;44020;50.890;15.796;2023-06-22T14:40:59;10.10;;;9.10;;
58222;SDS011;44020;50.890;15.796;2023-06-22T14:43:56;11.10;;;8.40;;
58222;SDS011;44020;50.890;15.796;2023-06-22T14:46:30;10.40;;;9.20;;
58222;SDS011;44020;50.890;15.796;2023-06-22T14:49:10;9.50;;;8.60;;
58222;SDS011;44020;50.890;15.796;2023-06-22T14:52:09;9.10;;;8.10;;
58222;SDS011;44020;50.890;15.796;2023-06-22T15:04:50;9.80;;;8.30;;
58222;SDS011;44020;50.890;15.796;2023-06-22T15:07:41;10.20;;;8.50;;
58222;SDS011;44020;50.890;15.796;2023-06-22T15:10:21;11.00;;;9.40;;
58222;SDS011;44020;50.890;15.796;2023-06-22T15:25:07;9.60;;;8.10;;
58222;SDS011;44020;50.890;15.796;2023-06-22T15:38:28;8.70;;;7.90;;
58222;SDS011;44020;50.890;15.796;2023-06-22T15:40:58;10.60;;;8.90;;
58222;SDS011;44020;50.890;15.796;2023-06-22T15:44:00;9.70;;;8.60;;
58222;SDS011;44020;50.890;15.796;2023-06-22T15:47:10;9.10;;;8.10;;
58222;SDS011;44020;50.890;15.796;2023-06-22T15:49:40;12.40;;;8.30;;
58222;SDS011;44020;50.890;15.796;2023-06-22T15:55:54;8.50;;;7.70;;
58222;SDS011;44020;50.890;15.796;2023-06-22T16:10:43;9.40;;;8.10;;
58222;SDS011;44020;50.890;15.796;2023-06-22T16:13:32;9.30;;;7.90;;
58222;SDS011;44020;50.890;15.796;2023-06-22T16:16:21;11.60;;;8.10;;
58222;SDS011;44020;50.890;15.796;2023-06-22T16:18:56;11.10;;;7.60;;
58222;SDS011;44020;50.890;15.796;2023-06-22T16:21:23;9.00;;;8.10;;
58222;SDS011;44020;50.890;15.796;2023-06-22T16:24:00;10.20;;;8.40;;
58222;SDS011;44020;50.890;15.796;2023-06-22T16:26:39;8.70;;;7.90;;
58222;SDS011;44020;50.890;15.796;2023-06-22T16:29:31;8.50;;;7.60;;
58222;SDS011;44020;50.890;15.796;2023-06-22T16:35:29;13.10;;;8.10;;
58222;SDS011;44020;50.890;15.796;2023-06-22T16:38:15;9.20;;;8.30;;
58222;SDS011;44020;50.890;15.796;2023-06-22T16:44:31;10.10;;;8.30;;
58222;SDS011;44020;50.890;15.796;2023-06-22T16:50:29;12.60;;;8.20;;
58222;SDS011;44020;50.890;15.796;2023-06-22T17:08:31;9.20;;;7.80;;
58222;SDS011;44020;50.890;15.796;2023-06-22T17:17:44;9.60;;;8.40;;
58222;SDS011;44020;50.890;15.796;2023-06-22T17:21:01;9.40;;;8.40;;
58222;SDS011;44020;50.890;15.796;2023-06-22T17:23:57;9.40;;;8.40;;
58222;SDS011;44020;50.890;15.796;2023-06-22T17:36:17;11.00;;;7.80;;
58222;SDS011;44020;50.890;15.796;2023-06-22T17:39:10;8.80;;;7.90;;
58222;SDS011;44020;50.890;15.796;2023-06-22T17:42:23;9.70;;;7.80;;
58222;SDS011;44020;50.890;15.796;2023-06-22T17:48:31;9.10;;;8.20;;
58222;SDS011;44020;50.890;15.796;2023-06-22T17:51:31;9.50;;;8.30;;
58222;SDS011;44020;50.890;15.796;2023-06-22T17:54:28;10.20;;;8.60;;
58222;SDS011;44020;50.890;15.796;2023-06-22T17:57:17;10.10;;;8.30;;
58222;SDS011;44020;50.890;15.796;2023-06-22T18:13:18;8.90;;;8.00;;
58222;SDS011;44020;50.890;15.796;2023-06-22T18:22:55;9.00;;;7.80;;
58222;SDS011;44020;50.890;15.796;2023-06-22T18:48:17;9.60;;;8.60;;
58222;SDS011;44020;50.890;15.796;2023-06-22T19:34:57;10.40;;;9.20;;
58222;SDS011;44020;50.890;15.796;2023-06-22T19:37:32;11.30;;;9.30;;
58222;SDS011;44020;50.890;15.796;2023-06-22T19:43:35;9.90;;;8.90;;
58222;SDS011;44020;50.890;15.796;2023-06-22T19:46:14;10.00;;;9.00;;
58222;SDS011;44020;50.890;15.796;2023-06-22T19:48:42;11.00;;;8.90;;
58222;SDS011;44020;50.890;15.796;2023-06-22T19:57:45;10.60;;;9.00;;
58222;SDS011;44020;50.890;15.796;2023-06-22T20:07:20;12.30;;;8.30;;
58222;SDS011;44020;50.890;15.796;2023-06-22T20:30:11;10.60;;;9.50;;
58222;SDS011;44020;50.890;15.796;2023-06-22T20:36:05;11.80;;;10.50;;
58222;SDS011;44020;50.890;15.796;2023-06-22T20:38:52;12.50;;;11.00;;
58222;SDS011;44020;50.890;15.796;2023-06-22T20:42:07;13.20;;;11.30;;
58222;SDS011;44020;50.890;15.796;2023-06-22T20:45:42;14.30;;;10.90;;
58222;SDS011;44020;50.890;15.796;2023-06-22T20:55:28;13.20;;;11.00;;
58222;SDS011;44020;50.890;15.796;2023-06-22T21:06:06;13.00;;;10.60;;
58222;SDS011;44020;50.890;15.796;2023-06-22T21:08:33;12.40;;;10.20;;
58222;SDS011;44020;50.890;15.796;2023-06-22T21:28:55;15.80;;;11.20;;
58222;SDS011;44020;50.890;15.796;2023-06-22T21:31:34;12.50;;;11.00;;
58222;SDS011;44020;50.890;15.796;2023-06-22T21:34:11;11.40;;;10.30;;
58222;SDS011;44020;50.890;15.796;2023-06-22T21:37:28;12.90;;;10.50;;
58222;SDS011;44020;50.890;15.796;2023-06-22T21:40:40;13.20;;;11.10;;
58222;SDS011;44020;50.890;15.796;2023-06-22T21:43:38;13.00;;;10.80;;
58222;SDS011;44020;50.890;15.796;2023-06-22T21:46:09;12.90;;;11.50;;
58222;SDS011;44020;50.890;15.796;2023-06-22T21:55:29;12.20;;;10.50;;
58222;SDS011;44020;50.890;15.796;2023-06-22T22:08:16;12.30;;;10.30;;
58222;SDS011;44020;50.890;15.796;2023-06-22T22:11:00;11.70;;;10.50;;
58222;SDS011;44020;50.890;15.796;2023-06-22T22:13:52;11.90;;;10.50;;
58222;SDS011;44020;50.890;15.796;2023-06-22T22:16:49;13.60;;;10.30;;
58222;SDS011;44020;50.890;15.796;2023-06-22T22:19:54;14.10;;;10.50;;
58222;SDS011;44020;50.890;15.796;2023-06-22T22:23:20;11.90;;;10.60;;
58222;SDS011;44020;50.890;15.796;2023-06-22T22:25:55;11.80;;;10.60;;
58222;SDS011;44020;50.890;15.796;2023-06-22T22:28:49;15.20;;;11.00;;
58222;SDS011;44020;50.890;15.796;2023-06-22T22:31:19;12.90;;;11.50;;
58222;SDS011;44020;50.890;15.796;2023-06-22T22:34:07;15.50;;;10.70;;